createdAt,value
2023-12-15T00:00:53.272Z,38.37
2023-12-15T00:01:53.293Z,38.39
2023-12-15T00:02:53.309Z,38.37
2023-12-15T00:03:53.403Z,38.37
2023-12-15T00:04:53.453Z,38.35
2023-12-15T00:05:53.485Z,38.35
2023-12-15T00:06:53.524Z,38.40
2023-12-15T00:07:53.603Z,38.38
2023-12-15T00:08:53.588Z,38.37
2023-12-15T00:09:53.630Z,38.36
2023-12-15T00:10:53.725Z,38.34
2023-12-15T00:11:53.725Z,38.35
2023-12-15T00:12:53.795Z,38.31
2023-12-15T00:13:53.860Z,38.35
2023-12-15T00:14:53.869Z,38.34
2023-12-15T00:15:53.947Z,38.32
2023-12-15T00:16:54.014Z,38.30
2023-12-15T00:17:54.186Z,38.32
2023-12-15T00:18:54.171Z,38.33
2023-12-15T00:19:54.149Z,38.34
2023-12-15T00:20:54.154Z,38.34
2023-12-15T00:21:54.222Z,38.34
2023-12-15T00:22:54.266Z,38.30
2023-12-15T00:23:54.311Z,38.32
2023-12-15T00:24:54.394Z,38.33
2023-12-15T00:25:54.442Z,38.33
2023-12-15T00:26:54.480Z,38.34
2023-12-15T00:27:54.516Z,38.28
2023-12-15T00:28:54.609Z,38.28
2023-12-15T00:29:54.620Z,38.30
2023-12-15T00:30:54.724Z,38.34
2023-12-15T00:31:54.766Z,38.30
2023-12-15T00:32:54.875Z,38.33
2023-12-15T00:33:54.922Z,38.30
2023-12-15T00:34:54.924Z,38.30
2023-12-15T00:35:54.939Z,38.33
2023-12-15T00:36:55.015Z,38.29
2023-12-15T00:37:55.060Z,38.26
2023-12-15T00:38:55.103Z,38.30
2023-12-15T00:39:55.149Z,38.25
2023-12-15T00:40:55.197Z,38.29
2023-12-15T00:41:55.257Z,38.29
2023-12-15T00:42:55.328Z,38.29
2023-12-15T00:43:55.430Z,38.27
2023-12-15T00:44:55.419Z,38.26
2023-12-15T00:45:55.476Z,38.26
2023-12-15T00:46:55.530Z,38.28
2023-12-15T00:47:55.621Z,38.29
2023-12-15T00:48:55.699Z,38.26
2023-12-15T00:49:55.777Z,38.26
2023-12-15T00:50:55.735Z,38.28
2023-12-15T00:51:55.811Z,38.23
2023-12-15T00:52:55.886Z,38.25
2023-12-15T00:53:55.891Z,38.22
2023-12-15T00:54:55.962Z,38.26
2023-12-15T00:55:56.084Z,38.26
2023-12-15T00:56:56.060Z,38.26
2023-12-15T00:57:56.129Z,38.27
2023-12-15T00:58:56.193Z,38.25
2023-12-15T00:59:56.213Z,38.26
2023-12-15T01:00:56.348Z,38.26
2023-12-15T01:01:56.420Z,38.24
2023-12-15T01:02:56.446Z,38.26
2023-12-15T01:03:56.444Z,38.24
2023-12-15T01:04:56.579Z,38.24
2023-12-15T01:05:56.653Z,38.23
2023-12-15T01:06:56.609Z,38.27
2023-12-15T01:07:56.709Z,38.21
2023-12-15T01:08:56.731Z,38.23
2023-12-15T01:09:56.773Z,38.21
2023-12-15T01:10:56.866Z,38.22
2023-12-15T01:11:56.889Z,38.24
2023-12-15T01:12:56.936Z,38.20
2023-12-15T01:13:56.993Z,38.20
2023-12-15T01:14:57.039Z,38.19
2023-12-15T01:15:57.118Z,38.23
2023-12-15T01:16:57.203Z,38.25
2023-12-15T01:17:57.903Z,38.24
2023-12-15T01:18:57.385Z,38.20
2023-12-15T01:19:57.412Z,38.22
2023-12-15T01:20:57.394Z,38.20
2023-12-15T01:21:57.450Z,38.20
2023-12-15T01:22:57.524Z,38.19
2023-12-15T01:23:57.636Z,38.18
2023-12-15T01:24:57.639Z,38.15
2023-12-15T01:25:57.728Z,38.20
2023-12-15T01:26:57.715Z,38.19
2023-12-15T01:27:57.806Z,38.18
2023-12-15T01:28:57.835Z,38.19
2023-12-15T01:29:57.883Z,38.18
2023-12-15T01:30:58.036Z,38.18
2023-12-15T01:31:58.013Z,38.21
2023-12-15T01:32:58.105Z,38.16
2023-12-15T01:33:58.207Z,38.19
2023-12-15T01:34:58.274Z,38.20
2023-12-15T01:35:58.250Z,38.21
2023-12-15T01:36:58.318Z,38.15
2023-12-15T01:37:58.403Z,38.14
2023-12-15T01:38:58.431Z,38.16
2023-12-15T01:39:58.490Z,38.15
2023-12-15T01:40:58.611Z,38.20
2023-12-15T01:41:58.615Z,38.12
2023-12-15T01:42:58.669Z,38.19
2023-12-15T01:43:58.785Z,38.19
2023-12-15T01:44:58.789Z,38.19
2023-12-15T01:46:05.382Z,38.20
2023-12-15T01:46:59.919Z,38.16
2023-12-15T01:47:58.966Z,38.17
2023-12-15T01:48:58.929Z,38.14
2023-12-15T01:49:58.875Z,38.16
2023-12-15T01:50:58.862Z,38.12
2023-12-15T01:51:58.863Z,38.16
2023-12-15T01:52:58.895Z,38.13
2023-12-15T01:53:58.871Z,38.16
2023-12-15T01:54:58.873Z,38.13
2023-12-15T01:55:58.917Z,38.12
2023-12-15T01:56:58.952Z,38.13
2023-12-15T01:57:59.055Z,38.18
2023-12-15T01:58:59.111Z,38.14
2023-12-15T01:59:59.121Z,38.16
2023-12-15T02:00:59.240Z,38.16
2023-12-15T02:01:59.251Z,38.13
2023-12-15T02:02:59.325Z,38.13
2023-12-15T02:03:59.415Z,38.14
2023-12-15T02:04:59.481Z,38.14
2023-12-15T02:05:59.543Z,38.17
2023-12-15T02:06:59.563Z,38.11
2023-12-15T02:07:59.649Z,38.11
2023-12-15T02:08:59.675Z,38.13
2023-12-15T02:09:59.732Z,38.09
2023-12-15T02:10:59.844Z,38.13
2023-12-15T02:11:59.909Z,38.09
2023-12-15T02:13:00.447Z,38.12
2023-12-15T02:14:00.024Z,38.12
2023-12-15T02:15:00.048Z,38.09
2023-12-15T02:16:00.133Z,38.13
2023-12-15T02:17:00.202Z,38.08
2023-12-15T02:18:00.405Z,38.12
2023-12-15T02:19:00.344Z,38.13
2023-12-15T02:20:00.475Z,38.09
2023-12-15T02:21:00.403Z,38.10
2023-12-15T02:22:00.502Z,38.09
2023-12-15T02:23:00.786Z,38.10
2023-12-15T02:24:00.628Z,38.09
2023-12-15T02:25:00.678Z,38.14
2023-12-15T02:26:00.779Z,38.10
2023-12-15T02:27:00.814Z,38.09
2023-12-15T02:28:00.893Z,38.11
2023-12-15T02:29:00.969Z,38.10
2023-12-15T02:30:01.003Z,38.14
2023-12-15T02:31:01.079Z,38.11
2023-12-15T02:32:01.233Z,38.11
2023-12-15T02:33:01.315Z,38.05
2023-12-15T02:34:01.374Z,38.12
2023-12-15T02:35:01.361Z,38.09
2023-12-15T02:36:01.403Z,38.07
2023-12-15T02:37:01.462Z,38.06
2023-12-15T02:38:01.572Z,38.09
2023-12-15T02:39:01.583Z,38.07
2023-12-15T02:40:01.663Z,38.09
2023-12-15T02:41:01.788Z,38.09
2023-12-15T02:42:01.789Z,38.14
2023-12-15T02:43:01.863Z,38.13
2023-12-15T02:44:01.957Z,38.06
2023-12-15T02:45:02.006Z,38.08
2023-12-15T02:46:02.086Z,38.08
2023-12-15T02:47:02.195Z,38.11
2023-12-15T02:48:02.318Z,38.10
2023-12-15T02:49:02.371Z,38.07
2023-12-15T02:50:02.374Z,38.07
2023-12-15T02:51:02.382Z,38.08
2023-12-15T02:52:02.449Z,38.10
2023-12-15T02:53:02.546Z,38.11
2023-12-15T02:54:02.593Z,38.08
2023-12-15T02:55:02.695Z,38.11
2023-12-15T02:56:02.777Z,38.08
2023-12-15T02:57:02.802Z,38.12
2023-12-15T02:58:02.882Z,38.06
2023-12-15T02:59:02.992Z,38.01
2023-12-15T03:00:02.990Z,37.97
2023-12-15T03:01:03.115Z,37.97
2023-12-15T03:02:03.102Z,37.93
2023-12-15T03:03:03.246Z,37.91
2023-12-15T03:04:03.248Z,37.82
2023-12-15T03:05:03.407Z,37.83
2023-12-15T03:06:03.342Z,37.77
2023-12-15T03:07:03.389Z,37.75
2023-12-15T03:08:03.488Z,37.68
2023-12-15T03:09:03.507Z,37.68
2023-12-15T03:10:03.547Z,37.64
2023-12-15T03:11:03.629Z,37.63
2023-12-15T03:12:03.633Z,37.64
2023-12-15T03:13:03.674Z,37.59
2023-12-15T03:14:03.758Z,37.59
2023-12-15T03:15:03.782Z,37.60
2023-12-15T03:16:03.832Z,37.57
2023-12-15T03:17:03.929Z,37.56
2023-12-15T03:18:04.016Z,37.50
2023-12-15T03:19:04.006Z,37.57
2023-12-15T03:20:04.030Z,37.51
2023-12-15T03:21:04.044Z,37.54
2023-12-15T03:22:04.097Z,37.51
2023-12-15T03:23:04.185Z,37.50
2023-12-15T03:24:04.177Z,37.53
2023-12-15T03:25:04.229Z,37.47
2023-12-15T03:26:04.314Z,37.49
2023-12-15T03:27:04.374Z,37.45
2023-12-15T03:28:04.384Z,37.42
2023-12-15T03:29:04.486Z,37.41
2023-12-15T03:30:04.485Z,37.40
2023-12-15T03:31:04.604Z,37.40
2023-12-15T03:32:04.730Z,37.44
2023-12-15T03:33:04.820Z,37.45
2023-12-15T03:34:04.648Z,37.45
2023-12-15T03:35:04.710Z,37.40
2023-12-15T03:36:04.717Z,37.49
2023-12-15T03:37:04.769Z,37.46
2023-12-15T03:38:04.900Z,37.47
2023-12-15T03:39:04.864Z,37.47
2023-12-15T03:40:04.917Z,37.49
2023-12-15T03:41:04.987Z,37.46
2023-12-15T03:42:04.999Z,37.42
2023-12-15T03:43:05.086Z,37.38
2023-12-15T03:44:05.257Z,37.47
2023-12-15T03:45:05.165Z,37.43
2023-12-15T03:46:05.201Z,37.44
2023-12-15T03:47:05.280Z,37.47
2023-12-15T03:48:05.365Z,37.45
2023-12-15T03:49:05.428Z,37.46
2023-12-15T03:50:05.442Z,37.43
2023-12-15T03:51:05.460Z,37.50
2023-12-15T03:52:05.481Z,37.47
2023-12-15T03:53:05.612Z,37.48
2023-12-15T03:54:05.613Z,37.46
2023-12-15T03:55:05.651Z,37.48
2023-12-15T03:56:05.786Z,37.46
2023-12-15T03:57:05.742Z,37.43
2023-12-15T03:58:05.804Z,37.48
2023-12-15T03:59:05.883Z,37.46
2023-12-15T04:00:06.777Z,37.51
2023-12-15T04:01:06.017Z,37.50
2023-12-15T04:02:08.683Z,37.53
2023-12-15T04:03:06.014Z,37.51
2023-12-15T04:04:06.006Z,37.54
2023-12-15T04:05:06.070Z,37.50
2023-12-15T04:06:06.132Z,37.51
2023-12-15T04:07:06.012Z,37.53
2023-12-15T04:08:06.041Z,37.55
2023-12-15T04:09:06.038Z,37.53
2023-12-15T04:10:06.006Z,37.49
2023-12-15T04:11:06.141Z,37.48
2023-12-15T04:12:06.019Z,37.45
2023-12-15T04:13:06.014Z,37.46
2023-12-15T04:14:06.071Z,37.46
2023-12-15T04:15:06.088Z,37.46
2023-12-15T04:16:06.024Z,37.48
2023-12-15T04:17:06.119Z,37.46
2023-12-15T04:18:06.458Z,37.43
2023-12-15T04:19:06.190Z,37.42
2023-12-15T04:20:06.082Z,37.46
2023-12-15T04:21:06.036Z,37.46
2023-12-15T04:22:06.033Z,37.44
2023-12-15T04:23:06.082Z,37.47
2023-12-15T04:24:06.054Z,37.44
2023-12-15T04:25:06.069Z,37.47
2023-12-15T04:26:06.068Z,37.46
2023-12-15T04:27:06.052Z,37.48
2023-12-15T04:28:06.061Z,37.52
2023-12-15T04:29:06.079Z,37.46
2023-12-15T04:30:06.100Z,37.47
2023-12-15T04:31:06.036Z,37.50
2023-12-15T04:32:06.062Z,37.43
2023-12-15T04:33:06.123Z,37.46
2023-12-15T04:34:06.063Z,37.46
2023-12-15T04:35:06.067Z,37.46
2023-12-15T04:36:13.302Z,37.49
2023-12-15T04:37:13.310Z,37.46
2023-12-15T04:38:13.377Z,37.45
2023-12-15T04:39:13.304Z,37.46
2023-12-15T04:40:13.307Z,37.44
2023-12-15T04:41:13.345Z,37.48
2023-12-15T04:42:13.334Z,37.48
2023-12-15T04:43:13.317Z,37.49
2023-12-15T04:44:13.416Z,37.52
2023-12-15T04:45:13.326Z,37.50
2023-12-15T04:46:13.339Z,37.50
2023-12-15T04:47:13.348Z,37.44
2023-12-15T04:48:13.350Z,37.43
2023-12-15T04:49:13.364Z,37.38
2023-12-15T04:50:13.344Z,37.35
2023-12-15T04:51:13.327Z,37.34
2023-12-15T04:52:13.365Z,37.30
2023-12-15T04:53:13.372Z,37.29
2023-12-15T04:54:13.335Z,37.30
2023-12-15T04:55:13.385Z,37.29
2023-12-15T04:56:13.370Z,37.25
2023-12-15T04:57:13.337Z,37.30
2023-12-15T04:58:13.342Z,37.23
2023-12-15T04:59:13.626Z,37.21
2023-12-15T05:00:13.364Z,37.21
2023-12-15T05:01:13.392Z,37.18
2023-12-15T05:02:13.360Z,37.17
2023-12-15T05:03:13.436Z,37.11
2023-12-15T05:04:13.381Z,37.07
2023-12-15T05:05:13.439Z,37.10
2023-12-15T05:06:13.489Z,37.06
2023-12-15T05:07:13.496Z,37.10
2023-12-15T05:08:13.513Z,37.00
2023-12-15T05:09:13.555Z,37.01
2023-12-15T05:10:13.672Z,36.99
2023-12-15T05:11:13.620Z,36.96
2023-12-15T05:12:13.619Z,36.96
2023-12-15T05:13:13.638Z,36.98
2023-12-15T05:14:13.726Z,36.94
2023-12-15T05:15:13.701Z,36.97
2023-12-15T05:16:13.757Z,36.93
2023-12-15T05:17:13.839Z,36.91
2023-12-15T05:18:13.908Z,36.90
2023-12-15T05:19:13.809Z,36.91
2023-12-15T05:20:13.832Z,36.91
2023-12-15T05:21:13.857Z,36.85
2023-12-15T05:22:13.879Z,36.87
2023-12-15T05:23:13.884Z,36.85
2023-12-15T05:24:13.888Z,36.84
2023-12-15T05:25:13.911Z,36.84
2023-12-15T05:26:13.990Z,36.85
2023-12-15T05:27:13.949Z,36.84
2023-12-15T05:28:13.990Z,36.80
2023-12-15T05:29:14.051Z,36.83
2023-12-15T05:30:14.038Z,36.84
2023-12-15T05:31:14.006Z,36.86
2023-12-15T05:32:14.097Z,36.80
2023-12-15T05:33:14.186Z,36.79
2023-12-15T05:34:14.297Z,36.79
2023-12-15T05:35:14.122Z,36.81
2023-12-15T05:36:14.072Z,36.82
2023-12-15T05:37:14.256Z,36.79
2023-12-15T05:38:14.191Z,36.77
2023-12-15T05:39:14.151Z,36.74
2023-12-15T05:40:14.144Z,36.75
2023-12-15T05:41:14.196Z,36.78
2023-12-15T05:42:14.156Z,36.78
2023-12-15T05:43:14.177Z,36.76
2023-12-15T05:44:14.227Z,36.74
2023-12-15T05:45:14.218Z,36.73
2023-12-15T05:46:14.218Z,36.73
2023-12-15T05:47:14.297Z,36.73
2023-12-15T05:48:14.655Z,36.77
2023-12-15T05:49:14.519Z,36.75
2023-12-15T05:50:14.444Z,36.72
2023-12-15T05:51:14.344Z,36.72
2023-12-15T05:52:14.316Z,36.73
2023-12-15T05:53:14.377Z,36.73
2023-12-15T05:54:14.354Z,36.72
2023-12-15T05:55:14.355Z,36.69
2023-12-15T05:56:14.391Z,36.77
2023-12-15T05:57:15.021Z,36.71
2023-12-15T05:58:14.407Z,36.75
2023-12-15T05:59:14.423Z,36.68
2023-12-15T06:00:14.389Z,36.72
2023-12-15T06:01:14.432Z,36.68
2023-12-15T06:02:14.444Z,36.68
2023-12-15T06:03:14.496Z,36.71
2023-12-15T06:04:14.436Z,36.72
2023-12-15T06:05:14.575Z,36.67
2023-12-15T06:06:14.596Z,36.71
2023-12-15T06:07:14.489Z,36.70
2023-12-15T06:08:14.559Z,36.67
2023-12-15T06:09:14.513Z,36.69
2023-12-15T06:10:14.508Z,36.70
2023-12-15T06:11:14.571Z,36.67
2023-12-15T06:12:14.521Z,36.65
2023-12-15T06:13:14.537Z,36.65
2023-12-15T06:14:14.570Z,36.66
2023-12-15T06:15:14.650Z,36.64
2023-12-15T06:16:14.561Z,36.58
2023-12-15T06:17:14.594Z,36.66
2023-12-15T06:18:14.660Z,36.58
2023-12-15T06:19:14.713Z,36.61
2023-12-15T06:20:14.738Z,36.59
2023-12-15T06:21:14.581Z,36.60
2023-12-15T06:22:14.594Z,36.59
2023-12-15T06:23:14.731Z,36.60
2023-12-15T06:24:14.660Z,36.56
2023-12-15T06:25:14.652Z,36.56
2023-12-15T06:26:14.606Z,36.51
2023-12-15T06:27:14.605Z,36.54
2023-12-15T06:28:14.638Z,36.56
2023-12-15T06:29:14.751Z,36.54
2023-12-15T06:30:14.656Z,36.52
2023-12-15T06:31:14.625Z,36.60
2023-12-15T06:32:14.734Z,36.69
2023-12-15T06:33:14.702Z,36.59
2023-12-15T06:34:14.797Z,36.57
2023-12-15T06:35:14.719Z,36.57
2023-12-15T06:36:14.662Z,36.73
2023-12-15T06:37:14.718Z,36.90
2023-12-15T06:38:15.036Z,36.83
2023-12-15T06:39:14.705Z,36.84
2023-12-15T06:40:14.713Z,37.17
2023-12-15T06:41:14.732Z,37.11
2023-12-15T06:42:14.787Z,37.39
2023-12-15T06:43:14.825Z,37.44
2023-12-15T06:44:14.932Z,37.80
2023-12-15T06:45:14.984Z,38.23
2023-12-15T06:46:14.982Z,38.36
2023-12-15T06:47:15.116Z,38.72
2023-12-15T06:48:15.281Z,39.14
2023-12-15T06:49:17.967Z,39.70
2023-12-15T06:50:15.219Z,39.78
2023-12-15T06:51:15.171Z,40.07
2023-12-15T06:52:15.171Z,40.34
2023-12-15T06:53:15.199Z,40.42
2023-12-15T06:54:15.174Z,40.44
2023-12-15T06:55:15.167Z,40.69
2023-12-15T06:56:15.214Z,40.76
2023-12-15T06:57:15.200Z,40.91
2023-12-15T06:58:15.270Z,41.04
2023-12-15T06:59:15.237Z,40.96
2023-12-15T07:00:15.211Z,41.06
2023-12-15T07:01:15.352Z,41.18
2023-12-15T07:02:15.348Z,41.55
2023-12-15T07:03:15.249Z,41.65
2023-12-15T07:04:15.338Z,41.80
2023-12-15T07:05:15.251Z,42.29
2023-12-15T07:06:15.241Z,42.23
2023-12-15T07:07:15.190Z,42.07
2023-12-15T07:08:15.222Z,41.81
2023-12-15T07:09:17.192Z,41.89
2023-12-15T07:10:15.192Z,42.00
2023-12-15T07:11:15.236Z,42.04
2023-12-15T07:12:15.204Z,42.00
2023-12-15T07:13:15.191Z,41.85
2023-12-15T07:14:15.237Z,41.75
2023-12-15T07:15:15.185Z,41.85
2023-12-15T07:16:15.185Z,42.08
2023-12-15T07:17:15.251Z,42.11
2023-12-15T07:18:15.325Z,41.91
2023-12-15T07:19:15.250Z,41.87
2023-12-15T07:20:15.238Z,41.88
2023-12-15T07:21:15.214Z,42.06
2023-12-15T07:22:16.675Z,42.06
2023-12-15T07:23:16.109Z,42.02
2023-12-15T07:24:15.233Z,42.25
2023-12-15T07:25:15.193Z,42.20
2023-12-15T07:26:15.246Z,41.91
2023-12-15T07:27:15.215Z,42.54
2023-12-15T07:28:15.232Z,42.45
2023-12-15T07:29:15.230Z,42.53
2023-12-15T07:30:15.278Z,42.56
2023-12-15T07:31:15.219Z,42.52
2023-12-15T07:32:15.242Z,42.62
2023-12-15T07:33:15.326Z,42.45
2023-12-15T07:34:15.373Z,42.65
2023-12-15T07:35:21.050Z,42.60
2023-12-15T07:36:16.324Z,42.25
2023-12-15T07:37:15.232Z,42.22
2023-12-15T07:38:15.284Z,42.32
2023-12-15T07:39:15.254Z,42.51
2023-12-15T07:40:15.242Z,42.72
2023-12-15T07:41:15.257Z,42.68
2023-12-15T07:42:15.237Z,42.59
2023-12-15T07:43:15.278Z,42.35
2023-12-15T07:44:15.255Z,42.06
2023-12-15T07:45:15.226Z,41.55
2023-12-15T07:46:15.236Z,41.18
2023-12-15T07:47:15.280Z,40.75
2023-12-15T07:48:15.342Z,40.99
2023-12-15T07:49:15.288Z,40.74
2023-12-15T07:50:15.293Z,40.44
2023-12-15T07:51:15.275Z,40.51
2023-12-15T07:52:15.248Z,40.39
2023-12-15T07:53:15.317Z,39.81
2023-12-15T07:54:15.526Z,39.76
2023-12-15T07:55:15.286Z,39.41
2023-12-15T07:56:15.323Z,39.37
2023-12-15T07:57:15.286Z,39.21
2023-12-15T07:58:15.291Z,39.17
2023-12-15T07:59:16.376Z,38.74
2023-12-15T08:00:15.290Z,39.02
2023-12-15T08:01:15.332Z,38.87
2023-12-15T08:02:15.432Z,38.70
2023-12-15T08:03:15.388Z,38.91
2023-12-15T08:04:15.529Z,39.00
2023-12-15T08:05:15.488Z,39.09
2023-12-15T08:06:15.445Z,39.26
2023-12-15T08:07:15.396Z,39.55
2023-12-15T08:08:15.450Z,39.69
2023-12-15T08:09:15.451Z,39.85
2023-12-15T08:10:15.497Z,40.14
2023-12-15T08:11:15.749Z,40.31
2023-12-15T08:12:15.621Z,40.65
2023-12-15T08:13:15.798Z,40.66
2023-12-15T08:14:15.773Z,40.82
2023-12-15T08:15:15.834Z,40.91
2023-12-15T08:16:15.881Z,41.09
2023-12-15T08:17:15.981Z,41.03
2023-12-15T08:18:16.140Z,41.20
2023-12-15T08:19:16.097Z,41.31
2023-12-15T08:20:16.107Z,41.26
2023-12-15T08:21:16.119Z,41.60
2023-12-15T08:22:16.175Z,41.63
2023-12-15T08:23:16.234Z,41.87
2023-12-15T08:24:16.267Z,41.86
2023-12-15T08:25:16.285Z,42.02
2023-12-15T08:26:16.373Z,42.36
2023-12-15T08:27:16.345Z,42.49
2023-12-15T08:28:16.388Z,42.47
2023-12-15T08:29:16.490Z,42.63
2023-12-15T08:30:16.468Z,42.71
2023-12-15T08:31:16.514Z,42.79
2023-12-15T08:32:16.543Z,42.80
2023-12-15T08:33:16.621Z,42.89
2023-12-15T08:34:17.075Z,42.99
2023-12-15T08:35:16.624Z,42.91
2023-12-15T08:36:16.624Z,42.86
2023-12-15T08:37:16.710Z,42.78
2023-12-15T08:38:16.721Z,42.64
2023-12-15T08:39:18.117Z,42.56
2023-12-15T08:40:16.803Z,42.41
2023-12-15T08:41:16.864Z,42.37
2023-12-15T08:42:16.916Z,42.30
2023-12-15T08:43:16.949Z,42.28
2023-12-15T08:44:24.508Z,42.25
2023-12-15T08:45:18.115Z,42.21
2023-12-15T08:46:17.015Z,42.11
2023-12-15T08:47:17.029Z,42.08
2023-12-15T08:48:17.138Z,42.02
2023-12-15T08:49:17.096Z,41.97
2023-12-15T08:50:17.058Z,41.91
2023-12-15T08:51:17.010Z,41.85
2023-12-15T08:52:17.058Z,41.77
2023-12-15T08:53:17.209Z,41.71
2023-12-15T08:54:18.039Z,41.67
2023-12-15T08:55:17.246Z,41.64
2023-12-15T08:56:17.593Z,41.56
2023-12-15T08:57:17.519Z,41.61
2023-12-15T08:58:17.421Z,41.61
2023-12-15T08:59:17.531Z,41.56
2023-12-15T09:00:17.627Z,41.52
2023-12-15T09:01:17.668Z,41.44
2023-12-15T09:02:17.659Z,41.44
2023-12-15T09:03:17.689Z,41.41
2023-12-15T09:04:17.696Z,41.40
2023-12-15T09:05:30.797Z,41.38
2023-12-15T09:06:26.521Z,41.37
2023-12-15T09:07:18.810Z,41.35
2023-12-15T09:08:17.864Z,41.33
2023-12-15T09:09:17.749Z,41.33
2023-12-15T09:10:17.744Z,41.28
2023-12-15T09:11:17.754Z,41.28
2023-12-15T09:12:17.722Z,41.29
2023-12-15T09:13:17.729Z,41.25
2023-12-15T09:14:17.793Z,41.23
2023-12-15T09:15:17.733Z,41.20
2023-12-15T09:16:17.780Z,41.20
2023-12-15T09:17:17.778Z,41.17
2023-12-15T09:18:17.789Z,41.15
2023-12-15T09:19:17.842Z,41.15
2023-12-15T09:20:17.823Z,41.11
2023-12-15T09:21:17.764Z,41.15
2023-12-15T09:22:17.751Z,41.10
2023-12-15T09:23:17.772Z,41.04
2023-12-15T09:24:17.776Z,41.06
2023-12-15T09:25:17.780Z,41.07
2023-12-15T09:26:17.896Z,40.92
2023-12-15T09:27:17.786Z,39.94
2023-12-15T09:28:17.798Z,38.78
2023-12-15T09:29:18.132Z,37.78
2023-12-15T09:30:17.811Z,37.27
2023-12-15T09:31:17.767Z,36.87
2023-12-15T09:32:17.795Z,36.43
2023-12-15T09:33:17.833Z,36.31
2023-12-15T09:34:18.146Z,36.12
2023-12-15T09:35:17.893Z,35.95
2023-12-15T09:36:17.863Z,35.70
2023-12-15T09:37:17.790Z,35.23
2023-12-15T09:38:17.873Z,35.09
2023-12-15T09:39:17.872Z,34.85
2023-12-15T09:40:17.797Z,34.74
2023-12-15T09:41:17.825Z,34.79
2023-12-15T09:42:17.795Z,35.02
2023-12-15T09:43:17.806Z,35.57
2023-12-15T09:44:18.155Z,36.01
2023-12-15T09:45:17.870Z,36.44
2023-12-15T09:46:17.811Z,36.58
2023-12-15T09:47:17.874Z,36.61
2023-12-15T09:48:17.962Z,36.40
2023-12-15T09:49:18.113Z,36.48
2023-12-15T09:50:18.011Z,36.39
2023-12-15T09:51:17.804Z,36.00
2023-12-15T09:52:17.816Z,35.93
2023-12-15T09:53:17.822Z,35.70
2023-12-15T09:54:18.072Z,35.54
2023-12-15T09:55:17.881Z,35.70
2023-12-15T09:56:18.017Z,35.79
2023-12-15T09:57:18.063Z,35.81
2023-12-15T09:58:18.095Z,35.66
2023-12-15T09:59:18.239Z,35.47
2023-12-15T10:00:18.251Z,35.25
2023-12-15T10:01:18.380Z,35.43
2023-12-15T10:02:18.450Z,35.37
2023-12-15T10:03:18.530Z,35.07
2023-12-15T10:04:18.588Z,34.98
2023-12-15T10:05:18.631Z,35.12
2023-12-15T10:06:18.689Z,34.95
2023-12-15T10:07:18.736Z,34.67
2023-12-15T10:08:18.813Z,34.77
2023-12-15T10:09:18.886Z,34.76
2023-12-15T10:10:18.893Z,34.47
2023-12-15T10:11:19.049Z,34.23
2023-12-15T10:12:18.994Z,34.13
2023-12-15T10:13:19.008Z,34.14
2023-12-15T10:14:18.990Z,33.98
2023-12-15T10:15:19.032Z,34.19
2023-12-15T10:16:19.014Z,33.95
2023-12-15T10:17:19.017Z,34.13
2023-12-15T10:18:26.551Z,34.20
2023-12-15T10:19:20.132Z,33.98
2023-12-15T10:20:19.144Z,34.04
2023-12-15T10:21:19.051Z,33.95
2023-12-15T10:22:19.028Z,34.05
2023-12-15T10:23:19.052Z,33.91
2023-12-15T10:24:19.056Z,33.89
2023-12-15T10:25:19.029Z,34.02
2023-12-15T10:26:19.120Z,35.76
2023-12-15T10:27:19.031Z,34.45
2023-12-15T10:28:19.037Z,34.51
2023-12-15T10:29:19.180Z,35.55
2023-12-15T10:30:19.148Z,39.23
2023-12-15T10:31:19.046Z,35.73
2023-12-15T10:32:19.073Z,35.13
2023-12-15T10:33:19.134Z,35.05
2023-12-15T10:34:19.129Z,35.25
2023-12-15T10:35:19.310Z,35.07
2023-12-15T10:36:19.218Z,35.13
2023-12-15T10:37:19.273Z,35.68
2023-12-15T10:38:19.363Z,35.39
2023-12-15T10:39:19.414Z,35.55
2023-12-15T10:40:19.461Z,35.70
2023-12-15T10:41:19.576Z,35.61
2023-12-15T10:42:19.566Z,35.65
2023-12-15T10:43:19.616Z,35.74
2023-12-15T10:44:19.679Z,35.82
2023-12-15T10:45:19.711Z,35.74
2023-12-15T10:46:19.746Z,35.90
2023-12-15T10:47:19.840Z,35.92
2023-12-15T10:48:20.028Z,35.90
2023-12-15T10:49:19.973Z,35.95
2023-12-15T10:50:19.964Z,35.96
2023-12-15T10:51:19.905Z,36.00
2023-12-15T10:52:19.945Z,36.04
2023-12-15T10:53:19.967Z,36.07
2023-12-15T10:54:20.122Z,36.77
2023-12-15T10:55:20.024Z,37.11
2023-12-15T10:56:20.047Z,37.19
2023-12-15T10:57:20.040Z,37.12
2023-12-15T10:58:20.066Z,37.20
2023-12-15T10:59:20.107Z,37.09
2023-12-15T11:00:20.088Z,37.04
2023-12-15T11:01:20.147Z,37.03
2023-12-15T11:02:20.126Z,37.06
2023-12-15T11:03:20.182Z,37.05
2023-12-15T11:04:20.116Z,37.05
2023-12-15T11:05:29.493Z,37.10
2023-12-15T11:06:21.243Z,37.00
2023-12-15T11:07:20.141Z,36.83
2023-12-15T11:08:20.165Z,36.74
2023-12-15T11:09:20.147Z,36.61
2023-12-15T11:10:20.128Z,36.57
2023-12-15T11:11:20.258Z,37.02
2023-12-15T11:12:20.169Z,37.10
2023-12-15T11:13:20.132Z,36.74
2023-12-15T11:14:20.187Z,36.76
2023-12-15T11:15:20.147Z,37.00
2023-12-15T11:16:20.175Z,37.13
2023-12-15T11:17:20.196Z,37.00
2023-12-15T11:18:20.453Z,36.98
2023-12-15T11:19:20.239Z,37.09
2023-12-15T11:20:20.260Z,37.07
2023-12-15T11:21:20.180Z,37.01
2023-12-15T11:22:20.175Z,37.12
2023-12-15T11:23:20.241Z,37.11
2023-12-15T11:24:20.611Z,36.83
2023-12-15T11:25:20.170Z,36.95
2023-12-15T11:26:20.232Z,36.88
2023-12-15T11:27:20.182Z,36.94
2023-12-15T11:28:20.224Z,36.91
2023-12-15T11:29:20.625Z,36.74
2023-12-15T11:30:20.206Z,36.95
2023-12-15T11:31:20.214Z,37.07
2023-12-15T11:32:20.251Z,37.12
2023-12-15T11:33:20.683Z,37.22
2023-12-15T11:34:20.234Z,37.26
2023-12-15T11:35:20.262Z,37.21
2023-12-15T11:36:20.190Z,37.23
2023-12-15T11:37:20.195Z,37.22
2023-12-15T11:38:20.674Z,37.34
2023-12-15T11:39:20.640Z,37.25
2023-12-15T11:40:20.227Z,37.31
2023-12-15T11:41:20.239Z,37.37
2023-12-15T11:42:20.232Z,37.32
2023-12-15T11:43:20.622Z,37.38
2023-12-15T11:44:20.295Z,37.38
2023-12-15T11:45:20.332Z,37.23
2023-12-15T11:46:20.265Z,37.32
2023-12-15T11:47:20.331Z,37.67
2023-12-15T11:48:20.736Z,37.36
2023-12-15T11:49:20.375Z,37.20
2023-12-15T11:50:20.380Z,37.24
2023-12-15T11:51:21.118Z,37.44
2023-12-15T11:52:20.396Z,37.59
2023-12-15T11:53:20.759Z,37.57
2023-12-15T11:54:20.647Z,37.88
2023-12-15T11:55:20.427Z,37.88
2023-12-15T11:56:20.459Z,37.90
2023-12-15T11:57:20.442Z,38.13
2023-12-15T11:58:20.454Z,38.11
2023-12-15T11:59:20.494Z,38.53
2023-12-15T12:00:20.460Z,38.34
2023-12-15T12:01:20.508Z,38.34
2023-12-15T12:02:20.495Z,38.35
2023-12-15T12:03:20.526Z,38.41
2023-12-15T12:04:20.712Z,38.40
2023-12-15T12:05:20.671Z,38.43
2023-12-15T12:06:20.634Z,38.46
2023-12-15T12:07:20.623Z,38.68
2023-12-15T12:08:20.657Z,38.68
2023-12-15T12:09:20.675Z,38.72
2023-12-15T12:10:20.741Z,38.79
2023-12-15T12:11:20.831Z,39.00
2023-12-15T12:12:20.864Z,39.67
2023-12-15T12:13:20.932Z,39.69
2023-12-15T12:14:21.036Z,39.54
2023-12-15T12:15:21.110Z,39.72
2023-12-15T12:16:21.158Z,39.90
2023-12-15T12:17:21.248Z,40.12
2023-12-15T12:18:21.353Z,40.23
2023-12-15T12:19:21.392Z,40.67
2023-12-15T12:20:21.542Z,40.53
2023-12-15T12:21:21.490Z,40.47
2023-12-15T12:22:21.555Z,40.41
2023-12-15T12:23:28.196Z,40.34
2023-12-15T12:24:23.139Z,40.44
2023-12-15T12:25:21.632Z,40.48
2023-12-15T12:26:21.670Z,40.53
2023-12-15T12:27:21.649Z,40.56
2023-12-15T12:28:21.652Z,40.68
2023-12-15T12:29:22.166Z,40.73
2023-12-15T12:30:21.650Z,40.71
2023-12-15T12:31:21.852Z,40.72
2023-12-15T12:32:21.657Z,40.69
2023-12-15T12:33:21.905Z,40.70
2023-12-15T12:34:22.217Z,40.72
2023-12-15T12:35:21.680Z,40.74
2023-12-15T12:36:21.652Z,40.73
2023-12-15T12:37:21.668Z,40.77
2023-12-15T12:38:21.682Z,40.72
2023-12-15T12:39:22.164Z,40.77
2023-12-15T12:40:21.667Z,40.72
2023-12-15T12:41:21.690Z,40.77
2023-12-15T12:42:21.675Z,40.78
2023-12-15T12:43:21.660Z,40.75
2023-12-15T12:44:22.229Z,40.79
2023-12-15T12:45:21.681Z,40.81
2023-12-15T12:46:21.695Z,40.84
2023-12-15T12:47:21.735Z,40.88
2023-12-15T12:48:21.886Z,40.85
2023-12-15T12:49:22.181Z,40.84
2023-12-15T12:50:21.843Z,40.79
2023-12-15T12:51:22.185Z,40.81
2023-12-15T12:52:21.886Z,40.84
2023-12-15T12:53:21.967Z,40.79